createdAt,value
2023-01-31T00:00:10.997Z,79.25
2023-01-31T00:02:58.901Z,79.54
2023-01-31T00:05:27.106Z,79.31
2023-01-31T00:07:55.733Z,78.43
2023-01-31T00:10:23.998Z,79.20
2023-01-31T00:12:52.289Z,79.26
2023-01-31T00:15:20.852Z,79.02
2023-01-31T00:17:49.295Z,79.35
2023-01-31T00:20:19.127Z,79.54
2023-01-31T00:22:47.148Z,79.22
2023-01-31T00:25:15.545Z,78.93
2023-01-31T00:27:43.558Z,79.36
2023-01-31T00:30:13.326Z,79.81
2023-01-31T00:32:41.269Z,79.87
2023-01-31T00:35:09.825Z,79.19
2023-01-31T00:37:38.179Z,79.15
2023-01-31T00:40:07.170Z,78.88
2023-01-31T00:42:35.537Z,78.93
2023-01-31T00:45:05.801Z,79.45
2023-01-31T00:47:33.715Z,77.53
2023-01-31T00:50:02.667Z,78.05
2023-01-31T00:52:30.964Z,78.58
2023-01-31T00:54:58.964Z,79.30
2023-01-31T00:57:27.177Z,78.30
2023-01-31T00:59:55.289Z,78.03
2023-01-31T01:02:23.600Z,78.75
2023-01-31T01:04:52.297Z,79.24
2023-01-31T01:07:20.610Z,79.15
2023-01-31T01:09:48.593Z,79.76
2023-01-31T01:12:16.927Z,79.83
2023-01-31T01:14:44.977Z,79.76
2023-01-31T01:17:13.319Z,80.33
2023-01-31T01:19:41.416Z,80.14
2023-01-31T01:22:09.727Z,79.55
2023-01-31T01:24:37.726Z,79.59
2023-01-31T01:27:06.137Z,78.51
2023-01-31T01:29:34.297Z,78.37
2023-01-31T01:32:03.118Z,79.14
2023-01-31T01:34:31.746Z,80.13
2023-01-31T01:37:00.139Z,79.97
2023-01-31T01:39:30.543Z,79.87
2023-01-31T01:41:59.255Z,79.85
2023-01-31T01:44:54.628Z,79.59
2023-01-31T01:47:38.596Z,78.08
2023-01-31T01:50:12.388Z,78.13
2023-01-31T02:52:09.942Z,77.40
2023-01-31T02:54:59.439Z,77.30
2023-01-31T02:57:28.353Z,77.43
2023-01-31T02:59:57.170Z,76.47
2023-01-31T03:02:26.615Z,77.37
2023-01-31T03:04:55.058Z,76.36
2023-01-31T03:07:28.265Z,76.09
2023-01-31T03:10:05.586Z,75.99
2023-01-31T03:12:48.706Z,75.58
2023-01-31T03:15:25.891Z,75.85
2023-01-31T03:18:10.704Z,76.29
2023-01-31T03:20:50.256Z,76.02
2023-01-31T03:23:27.073Z,76.11
2023-01-31T03:26:00.544Z,75.33
2023-01-31T03:28:32.586Z,75.69
2023-01-31T03:31:22.133Z,75.81
2023-01-31T03:34:02.396Z,75.92
2023-01-31T03:37:28.063Z,75.45
2023-01-31T03:40:24.475Z,76.36
2023-01-31T03:43:25.614Z,76.43
2023-01-31T03:46:02.487Z,76.17
2023-01-31T03:48:36.128Z,76.47
2023-01-31T03:51:09.285Z,75.40
2023-01-31T03:53:48.965Z,76.12
2023-01-31T03:56:33.296Z,75.67
2023-01-31T03:59:08.623Z,76.85
2023-01-31T04:01:42.082Z,76.96
2023-01-31T04:04:13.208Z,76.24
2023-01-31T04:06:41.751Z,76.04
2023-01-31T04:09:11.163Z,77.39
2023-01-31T04:11:41.636Z,76.49
2023-01-31T04:14:11.436Z,76.40
2023-01-31T04:16:39.364Z,77.17
2023-01-31T04:19:07.633Z,77.78
2023-01-31T04:21:35.563Z,78.37
2023-01-31T04:24:05.282Z,78.55
2023-01-31T04:26:33.778Z,78.85
2023-01-31T04:29:04.183Z,79.34
2023-01-31T04:31:32.551Z,79.77
2023-01-31T04:34:00.985Z,77.78
2023-01-31T04:36:28.980Z,77.54
2023-01-31T04:38:57.261Z,78.13
2023-01-31T04:41:25.143Z,77.16
2023-01-31T04:43:53.510Z,77.69
2023-01-31T04:46:21.985Z,78.47
2023-01-31T04:48:50.214Z,78.15
2023-01-31T04:51:18.138Z,78.59
2023-01-31T04:53:46.466Z,77.79
2023-01-31T04:56:14.444Z,78.63
2023-01-31T04:58:43.692Z,77.75
2023-01-31T05:01:11.728Z,77.46
2023-01-31T05:03:40.356Z,77.27
2023-01-31T05:06:08.813Z,77.71
2023-01-31T05:08:37.024Z,77.73
2023-01-31T05:11:07.613Z,77.93
2023-01-31T05:13:40.987Z,77.78
2023-01-31T05:16:10.950Z,77.96
2023-01-31T05:18:40.573Z,77.92
2023-01-31T05:21:08.904Z,75.62
2023-01-31T05:23:37.215Z,75.78
2023-01-31T05:26:05.442Z,74.94
2023-01-31T05:28:34.936Z,75.80
2023-01-31T05:31:08.302Z,75.47
2023-01-31T05:33:36.579Z,76.05
2023-01-31T05:36:05.352Z,75.56
2023-01-31T05:38:34.414Z,75.26
2023-01-31T05:41:02.424Z,75.40
2023-01-31T05:43:31.300Z,74.39
2023-01-31T05:45:59.470Z,74.01
2023-01-31T05:48:27.700Z,75.01
2023-01-31T05:50:55.558Z,74.87
2023-01-31T05:53:24.919Z,74.41
2023-01-31T05:55:53.604Z,75.04
2023-01-31T05:58:21.833Z,74.85
2023-01-31T06:00:49.778Z,75.58
2023-01-31T06:03:18.179Z,75.51
2023-01-31T06:05:46.145Z,76.27
2023-01-31T06:08:14.406Z,76.89
2023-01-31T06:10:42.355Z,76.67
2023-01-31T06:13:10.787Z,75.91
2023-01-31T06:15:45.825Z,75.64
2023-01-31T06:18:14.767Z,74.87
2023-01-31T06:20:42.734Z,74.74
2023-01-31T06:23:10.902Z,74.64
2023-01-31T06:25:38.795Z,75.06
2023-01-31T06:28:07.112Z,75.41
2023-01-31T06:30:35.867Z,75.36
2023-01-31T06:33:04.133Z,75.77
2023-01-31T06:35:34.024Z,75.46
2023-01-31T06:38:02.389Z,76.24
2023-01-31T06:40:31.026Z,75.18
2023-01-31T06:43:00.120Z,75.67
2023-01-31T06:45:28.905Z,75.48
2023-01-31T06:47:57.275Z,75.37
2023-01-31T06:50:25.275Z,75.56
2023-01-31T06:52:54.357Z,74.54
2023-01-31T06:55:22.813Z,75.33
2023-01-31T06:57:51.487Z,75.85
2023-01-31T07:00:19.905Z,75.47
2023-01-31T07:02:48.756Z,75.87
2023-01-31T07:05:16.876Z,75.82
2023-01-31T07:07:46.748Z,76.57
2023-01-31T07:10:14.785Z,75.91
2023-01-31T07:12:43.393Z,75.82
2023-01-31T07:15:11.685Z,75.80
2023-01-31T07:17:40.056Z,75.40
2023-01-31T07:20:10.926Z,74.64
2023-01-31T07:22:40.294Z,73.38
2023-01-31T07:25:08.712Z,71.98
2023-01-31T07:27:37.003Z,71.51
2023-01-31T07:30:05.409Z,71.48
2023-01-31T07:32:34.902Z,72.30
2023-01-31T07:35:02.876Z,71.85
2023-01-31T07:37:31.322Z,72.14
2023-01-31T07:39:59.267Z,71.29
2023-01-31T07:42:29.874Z,72.66
2023-01-31T07:45:07.004Z,70.83
2023-01-31T07:47:45.286Z,66.91
2023-01-31T07:50:13.266Z,66.91
2023-01-31T07:52:41.701Z,66.42
2023-01-31T07:55:09.846Z,65.99
2023-01-31T07:57:38.153Z,65.39
2023-01-31T08:00:26.740Z,64.04
2023-01-31T08:03:14.749Z,62.70
2023-01-31T08:05:46.604Z,62.26
2023-01-31T08:08:15.313Z,61.77
2023-01-31T08:10:43.316Z,60.49
2023-01-31T08:13:12.677Z,58.75
2023-01-31T08:15:40.656Z,58.62
2023-01-31T08:18:10.246Z,56.71
2023-01-31T08:20:38.166Z,56.27
2023-01-31T08:23:06.435Z,55.87
2023-01-31T08:25:34.405Z,56.94
2023-01-31T08:28:03.472Z,55.91
2023-01-31T08:30:31.707Z,54.82
2023-01-31T08:33:01.747Z,53.88
2023-01-31T08:35:30.275Z,56.46
2023-01-31T08:38:15.404Z,57.68
2023-01-31T08:40:44.198Z,57.43
2023-01-31T08:43:12.498Z,55.79
2023-01-31T08:45:40.535Z,56.92
2023-01-31T08:48:08.987Z,56.76
2023-01-31T08:50:37.587Z,57.16
2023-01-31T08:53:07.216Z,58.12
2023-01-31T08:55:36.623Z,58.03
2023-01-31T08:58:06.178Z,55.35
2023-01-31T09:00:34.356Z,57.47
2023-01-31T09:03:02.829Z,58.33
2023-01-31T09:05:32.636Z,57.83
2023-01-31T09:08:00.896Z,58.86
2023-01-31T09:10:28.912Z,59.72
2023-01-31T09:13:00.071Z,59.58
2023-01-31T09:15:28.677Z,58.15
2023-01-31T09:17:57.074Z,57.29
2023-01-31T09:20:25.008Z,57.89
2023-01-31T09:22:53.297Z,57.90
2023-01-31T09:25:33.497Z,56.78
2023-01-31T09:28:09.595Z,58.19
2023-01-31T09:30:37.883Z,57.53
2023-01-31T09:33:06.210Z,58.61
2023-01-31T09:35:34.265Z,61.42
2023-01-31T09:38:03.776Z,62.42
2023-01-31T09:40:36.619Z,62.63
2023-01-31T09:43:11.766Z,64.26
2023-01-31T09:45:44.095Z,64.53
2023-01-31T09:48:23.226Z,64.07
2023-01-31T09:50:56.551Z,62.91
2023-01-31T09:53:31.479Z,63.10
2023-01-31T09:56:19.037Z,61.21
2023-01-31T09:58:53.084Z,63.43
2023-01-31T10:01:40.096Z,60.70
2023-01-31T10:04:22.424Z,59.43
2023-01-31T10:07:24.145Z,57.56
2023-01-31T10:10:00.712Z,55.00
2023-01-31T10:12:39.103Z,54.19
2023-01-31T10:15:17.497Z,55.21
2023-01-31T10:17:54.674Z,55.26
2023-01-31T10:20:36.300Z,54.93
2023-01-31T10:23:23.494Z,54.06
2023-01-31T10:25:58.477Z,55.00
2023-01-31T10:28:36.527Z,53.91
2023-01-31T10:31:11.583Z,53.99
2023-01-31T10:33:49.580Z,56.07
2023-01-31T10:36:39.892Z,56.81
2023-01-31T10:39:20.761Z,56.92
2023-01-31T10:42:13.320Z,54.54
2023-01-31T10:44:41.201Z,54.96
2023-01-31T10:47:16.090Z,54.84
2023-01-31T10:49:50.153Z,55.37
2023-01-31T10:52:58.310Z,53.95
2023-01-31T10:55:52.745Z,52.12
2023-01-31T10:58:22.711Z,53.51
2023-01-31T11:00:51.754Z,53.42
2023-01-31T11:03:20.278Z,52.24
2023-01-31T11:05:52.380Z,52.46
2023-01-31T11:08:20.595Z,51.59
2023-01-31T11:10:54.271Z,49.21
2023-01-31T11:13:23.747Z,48.14
2023-01-31T11:15:55.974Z,47.68
2023-01-31T11:18:49.500Z,50.76
2023-01-31T11:21:25.568Z,48.82
2023-01-31T11:24:18.559Z,47.45
2023-01-31T11:27:06.308Z,47.35
2023-01-31T11:29:51.519Z,47.83
2023-01-31T11:32:24.331Z,47.59
2023-01-31T11:35:04.530Z,47.07
2023-01-31T11:37:34.765Z,46.58
2023-01-31T11:40:20.090Z,47.16
2023-01-31T11:42:57.433Z,44.48
2023-01-31T11:45:37.725Z,44.80
2023-01-31T11:48:08.991Z,45.56
2023-01-31T11:50:39.815Z,44.80
2023-01-31T11:53:39.310Z,45.31
2023-01-31T11:56:17.106Z,44.37
2023-01-31T11:58:47.878Z,43.96
2023-01-31T12:01:26.884Z,44.58
2023-01-31T12:04:05.982Z,45.06
2023-01-31T12:06:40.305Z,44.60
2023-01-31T12:09:21.843Z,40.93
2023-01-31T12:12:25.339Z,37.82
2023-01-31T12:15:00.312Z,36.76
2023-01-31T12:17:36.770Z,35.72
2023-01-31T12:20:26.940Z,34.73
2023-01-31T12:23:14.803Z,34.96
2023-01-31T12:25:45.514Z,36.60
2023-01-31T12:28:49.932Z,36.59
2023-01-31T12:31:23.773Z,38.19
2023-01-31T12:34:02.261Z,37.52
2023-01-31T12:37:00.442Z,35.09
2023-01-31T12:40:24.797Z,34.60
2023-01-31T12:43:26.892Z,31.88
2023-01-31T12:46:10.037Z,32.61
2023-01-31T12:48:56.294Z,32.05
2023-01-31T12:51:54.813Z,33.08
2023-01-31T12:54:48.932Z,31.63
2023-01-31T12:57:52.843Z,33.13
2023-01-31T13:00:45.619Z,34.32
2023-01-31T13:03:16.956Z,33.15
2023-01-31T13:05:48.428Z,31.54
2023-01-31T13:08:22.197Z,30.92
2023-01-31T13:11:03.397Z,31.31
2023-01-31T13:13:58.216Z,30.30
2023-01-31T13:16:43.775Z,30.29
2023-01-31T13:19:20.231Z,29.35
2023-01-31T13:21:55.316Z,32.25
2023-01-31T13:24:29.913Z,32.49
2023-01-31T13:27:28.596Z,31.85
2023-01-31T13:30:02.619Z,31.16
2023-01-31T13:32:42.622Z,28.96
2023-01-31T13:35:22.648Z,28.76
2023-01-31T13:37:56.295Z,30.27
2023-01-31T13:40:28.282Z,30.42
2023-01-31T13:43:00.832Z,28.80
2023-01-31T13:45:34.607Z,28.82
2023-01-31T13:48:02.489Z,29.44
2023-01-31T13:50:50.099Z,28.72
2023-01-31T13:53:26.499Z,28.01
2023-01-31T13:55:56.108Z,28.60
2023-01-31T13:58:28.995Z,28.72
2023-01-31T14:01:18.445Z,28.62
2023-01-31T14:04:15.128Z,26.84
2023-01-31T14:07:10.429Z,26.63
2023-01-31T14:09:42.710Z,26.79
2023-01-31T14:12:11.066Z,25.76
2023-01-31T14:14:45.210Z,25.79
2023-01-31T14:17:34.164Z,25.52
2023-01-31T14:20:21.983Z,26.28
2023-01-31T14:23:27.408Z,27.23
2023-01-31T14:25:55.282Z,27.30
2023-01-31T14:28:26.369Z,28.54
2023-01-31T14:30:56.004Z,28.30
2023-01-31T14:33:38.632Z,28.90
2023-01-31T14:36:40.560Z,27.76
2023-01-31T14:39:11.350Z,27.71
2023-01-31T14:42:11.134Z,28.19
2023-01-31T14:44:41.823Z,27.10
2023-01-31T14:47:26.298Z,26.84
2023-01-31T14:50:22.056Z,26.61
2023-01-31T14:52:59.210Z,26.15
2023-01-31T14:55:55.204Z,26.81
2023-01-31T14:58:27.927Z,26.41
2023-01-31T15:01:03.133Z,25.05
2023-01-31T15:03:36.413Z,24.14
2023-01-31T15:06:16.213Z,25.51
2023-01-31T15:08:51.884Z,25.42
2023-01-31T15:11:41.102Z,25.60
2023-01-31T15:14:36.620Z,25.16
2023-01-31T15:17:35.690Z,26.21
2023-01-31T15:20:20.175Z,23.14
2023-01-31T15:22:49.699Z,22.93
2023-01-31T15:25:43.945Z,23.72
2023-01-31T15:28:21.187Z,25.08
2023-01-31T15:30:52.799Z,26.66
2023-01-31T15:33:33.776Z,26.99
2023-01-31T15:36:37.747Z,28.67
2023-01-31T15:39:23.845Z,29.22
2023-01-31T15:41:52.599Z,29.52
2023-01-31T15:44:23.474Z,28.33
2023-01-31T15:46:58.319Z,32.52
2023-01-31T15:49:40.317Z,35.23
2023-01-31T15:52:17.010Z,37.27
2023-01-31T15:54:57.666Z,36.67
2023-01-31T15:57:41.737Z,38.39
2023-01-31T16:00:23.466Z,39.65
2023-01-31T16:03:00.904Z,40.31
2023-01-31T16:05:34.626Z,43.21
2023-01-31T16:08:35.808Z,43.19
2023-01-31T16:11:06.826Z,44.28
2023-01-31T16:13:39.136Z,45.44
2023-01-31T16:16:14.780Z,45.99
2023-01-31T16:18:51.858Z,44.64
2023-01-31T16:21:35.305Z,46.04
2023-01-31T16:24:18.539Z,47.49
2023-01-31T16:27:00.239Z,49.29
2023-01-31T16:29:47.491Z,49.84
2023-01-31T16:32:17.395Z,51.23
2023-01-31T16:34:53.809Z,55.19
2023-01-31T16:37:37.248Z,57.26
2023-01-31T16:40:17.702Z,56.66
2023-01-31T16:42:46.810Z,58.42
2023-01-31T16:45:29.517Z,59.21
2023-01-31T16:48:20.861Z,59.61
2023-01-31T16:50:51.134Z,59.12
2023-01-31T16:53:22.157Z,58.25
2023-01-31T16:56:15.537Z,58.13
2023-01-31T16:58:56.682Z,58.26
2023-01-31T17:01:29.948Z,57.75
2023-01-31T17:04:16.229Z,59.30
2023-01-31T17:06:50.905Z,58.46
2023-01-31T17:09:23.256Z,58.36
2023-01-31T17:11:54.795Z,57.23
2023-01-31T17:14:23.786Z,57.90
2023-01-31T17:16:54.253Z,59.09
2023-01-31T17:19:22.592Z,58.01
2023-01-31T17:21:51.564Z,58.74
2023-01-31T17:24:23.044Z,58.10
2023-01-31T17:26:53.751Z,57.83
2023-01-31T17:29:23.664Z,57.82
2023-01-31T17:31:52.527Z,57.05
2023-01-31T17:34:21.331Z,58.22
2023-01-31T17:36:49.901Z,58.21
2023-01-31T17:39:18.203Z,58.51
2023-01-31T17:41:47.284Z,59.17
2023-01-31T17:44:15.716Z,58.92
2023-01-31T17:46:44.785Z,59.92
2023-01-31T17:49:13.489Z,60.68
2023-01-31T17:51:43.165Z,60.33
2023-01-31T17:54:11.821Z,62.42
2023-01-31T17:56:40.606Z,62.89
2023-01-31T17:59:18.330Z,62.35
2023-01-31T18:01:54.165Z,62.51
2023-01-31T18:04:22.447Z,62.91
2023-01-31T18:06:52.291Z,63.07
2023-01-31T18:09:21.278Z,62.98
2023-01-31T18:11:49.943Z,63.03
2023-01-31T18:14:18.974Z,64.14
2023-01-31T18:16:50.970Z,63.98
2023-01-31T18:19:19.185Z,63.53
2023-01-31T18:21:54.965Z,64.02
2023-01-31T18:24:23.815Z,64.13
2023-01-31T18:26:53.095Z,64.66
2023-01-31T18:29:23.392Z,64.86
2023-01-31T18:31:58.161Z,65.34
2023-01-31T18:34:26.563Z,65.39
2023-01-31T18:36:56.133Z,65.39
2023-01-31T18:39:25.193Z,65.83
2023-01-31T18:41:53.994Z,65.46
2023-01-31T18:44:22.253Z,65.46
2023-01-31T18:46:51.934Z,64.85
2023-01-31T18:49:20.423Z,65.63
2023-01-31T18:51:49.998Z,66.47
2023-01-31T18:54:19.474Z,66.42
2023-01-31T18:56:48.238Z,66.84
2023-01-31T18:59:16.315Z,66.98
2023-01-31T19:01:44.806Z,66.90
2023-01-31T19:04:12.888Z,67.12
2023-01-31T19:06:41.313Z,67.20
2023-01-31T19:09:09.939Z,67.72
2023-01-31T19:11:43.589Z,67.52
2023-01-31T19:14:15.262Z,67.17
2023-01-31T19:16:45.082Z,70.09
2023-01-31T19:19:13.199Z,71.76
2023-01-31T19:21:41.619Z,71.02
2023-01-31T19:24:12.886Z,70.69
2023-01-31T19:26:42.458Z,70.53
2023-01-31T19:29:15.058Z,70.95
2023-01-31T19:31:43.874Z,73.13
2023-01-31T19:34:11.837Z,73.49
2023-01-31T19:36:41.632Z,74.42
2023-01-31T19:39:12.741Z,74.64
2023-01-31T19:41:42.804Z,73.22
2023-01-31T19:44:11.228Z,73.41
2023-01-31T19:46:39.485Z,72.66
2023-01-31T19:49:07.515Z,72.84
2023-01-31T19:51:35.993Z,72.24
2023-01-31T19:54:04.197Z,71.84
2023-01-31T19:56:33.112Z,73.10
2023-01-31T19:59:01.368Z,73.24
2023-01-31T20:01:29.846Z,74.99
2023-01-31T20:03:58.201Z,76.81
2023-01-31T20:06:29.300Z,77.19
2023-01-31T20:09:00.113Z,77.38
2023-01-31T20:11:29.608Z,75.49
2023-01-31T20:13:58.229Z,75.95
2023-01-31T20:16:27.022Z,76.95
2023-01-31T20:18:56.388Z,76.99
2023-01-31T20:21:25.274Z,76.27
2023-01-31T20:23:53.186Z,75.90
2023-01-31T20:26:24.583Z,76.13
2023-01-31T20:28:52.632Z,75.29
2023-01-31T20:31:22.081Z,74.95
2023-01-31T20:33:54.951Z,75.73
2023-01-31T20:36:23.933Z,75.97
2023-01-31T20:38:52.045Z,76.29
2023-01-31T20:41:21.977Z,74.65
2023-01-31T20:43:50.763Z,75.17
2023-01-31T20:46:19.630Z,76.10
2023-01-31T20:48:48.005Z,76.13
2023-01-31T20:51:16.434Z,75.96
2023-01-31T20:53:44.364Z,75.40
2023-01-31T20:56:12.697Z,75.90
2023-01-31T20:58:42.512Z,76.14
2023-01-31T21:01:12.526Z,75.56
2023-01-31T21:03:40.725Z,75.82
2023-01-31T21:06:09.668Z,75.47
2023-01-31T21:08:37.696Z,75.18
2023-01-31T21:11:08.850Z,74.95
2023-01-31T21:13:36.974Z,74.72
2023-01-31T21:16:08.155Z,73.85
2023-01-31T21:18:39.009Z,73.99
2023-01-31T21:21:09.890Z,73.77
2023-01-31T21:23:39.803Z,74.49
2023-01-31T21:26:10.407Z,75.60
2023-01-31T21:28:40.171Z,75.94
2023-01-31T21:31:18.274Z,76.50
2023-01-31T21:33:48.302Z,76.24
2023-01-31T21:36:19.430Z,76.64
2023-01-31T21:38:47.587Z,75.75
2023-01-31T21:41:36.431Z,76.60
2023-01-31T21:44:04.774Z,77.14
2023-01-31T21:46:33.268Z,77.79
2023-01-31T21:49:01.695Z,77.75
2023-01-31T21:51:30.105Z,77.68
2023-01-31T21:53:58.059Z,78.42
2023-01-31T21:56:28.557Z,78.95
2023-01-31T21:58:57.650Z,79.38
2023-01-31T22:01:32.480Z,79.43
2023-01-31T22:04:01.164Z,78.86
2023-01-31T22:06:35.273Z,77.88
2023-01-31T22:09:03.374Z,79.10
2023-01-31T22:11:35.661Z,78.15
2023-01-31T22:14:09.153Z,78.97
2023-01-31T22:16:37.378Z,79.05
2023-01-31T22:19:05.362Z,79.12
2023-01-31T22:21:36.287Z,77.60
2023-01-31T22:24:06.896Z,78.58
2023-01-31T22:26:43.488Z,77.88
2023-01-31T22:29:13.579Z,77.03
2023-01-31T22:31:42.789Z,77.19
2023-01-31T22:34:15.250Z,77.27
2023-01-31T22:36:44.433Z,77.83
2023-01-31T22:39:13.504Z,77.29
2023-01-31T22:41:44.852Z,77.36
2023-01-31T22:44:12.805Z,77.75
2023-01-31T22:46:43.646Z,78.07
2023-01-31T22:49:11.502Z,78.50
2023-01-31T22:51:39.744Z,78.53
2023-01-31T22:54:08.613Z,79.18
2023-01-31T22:56:36.825Z,79.40
2023-01-31T22:59:06.270Z,79.71
2023-01-31T23:01:37.385Z,79.53
2023-01-31T23:04:08.018Z,79.89
2023-01-31T23:06:37.765Z,80.67
2023-01-31T23:09:05.805Z,79.87
2023-01-31T23:11:34.173Z,80.23
2023-01-31T23:14:03.232Z,80.09
2023-01-31T23:16:50.111Z,79.56
2023-01-31T23:19:18.336Z,79.19
2023-01-31T23:21:49.155Z,78.20
2023-01-31T23:24:17.123Z,78.57
2023-01-31T23:26:46.435Z,78.58
2023-01-31T23:29:14.437Z,78.63
2023-01-31T23:31:43.768Z,78.49
2023-01-31T23:34:11.719Z,77.97
2023-01-31T23:36:39.877Z,78.27
2023-01-31T23:39:07.719Z,77.40
2023-01-31T23:41:35.937Z,76.66
2023-01-31T23:44:04.200Z,77.20
2023-01-31T23:46:33.553Z,77.04
2023-01-31T23:49:02.193Z,75.97
2023-01-31T23:51:34.015Z,75.30
2023-01-31T23:54:02.062Z,74.87
2023-01-31T23:56:30.455Z,75.53
2023-01-31T23:58:58.347Z,76.25
